sensor_id;sensor_type;location;lat;lon;timestamp;temperature;humidity
55151;DHT22;41041;43.162;20.538;2023-03-01T00:01:30;128.00;2252.80
55151;DHT22;41041;43.162;20.538;2023-03-01T00:03:57;103.30;2227.20
55151;DHT22;41041;43.162;20.538;2023-03-01T00:06:24;103.30;2227.20
55151;DHT22;41041;43.162;20.538;2023-03-01T00:12:12;103.30;2227.20
55151;DHT22;41041;43.162;20.538;2023-03-01T00:14:38;103.20;2227.20
55151;DHT22;41041;43.162;20.538;2023-03-01T00:17:05;103.10;2227.20
55151;DHT22;41041;43.162;20.538;2023-03-01T00:25:32;103.10;2227.20
55151;DHT22;41041;43.162;20.538;2023-03-01T00:27:59;103.10;2227.20
55151;DHT22;41041;43.162;20.538;2023-03-01T06:04:00;128.60;2252.80
55151;DHT22;41041;43.162;20.538;2023-03-01T06:06:26;128.30;2252.80
55151;DHT22;41041;43.162;20.538;2023-03-01T06:08:52;128.20;2252.80
55151;DHT22;41041;43.162;20.538;2023-03-01T06:11:19;128.30;2252.80
55151;DHT22;41041;43.162;20.538;2023-03-01T06:13:45;128.50;2252.80
55151;DHT22;41041;43.162;20.538;2023-03-01T06:16:12;128.60;2252.80
55151;DHT22;41041;43.162;20.538;2023-03-01T06:18:38;128.50;2252.80
55151;DHT22;41041;43.162;20.538;2023-03-01T06:21:05;128.50;2252.80
55151;DHT22;41041;43.162;20.538;2023-03-01T06:23:31;128.80;2252.80
55151;DHT22;41041;43.162;20.538;2023-03-01T06:25:57;128.60;2252.80
55151;DHT22;41041;43.162;20.538;2023-03-01T06:28:23;128.60;2252.80
55151;DHT22;41041;43.162;20.538;2023-03-01T06:30:50;128.60;2252.80
55151;DHT22;41041;43.162;20.538;2023-03-01T06:33:17;128.60;2252.80
55151;DHT22;41041;43.162;20.538;2023-03-01T06:35:46;128.50;2252.80
55151;DHT22;41041;43.162;20.538;2023-03-01T06:41:16;128.80;2252.80
55151;DHT22;41041;43.162;20.538;2023-03-01T06:43:41;128.80;2252.80
55151;DHT22;41041;43.162;20.538;2023-03-01T06:46:07;128.60;2252.80
55151;DHT22;41041;43.162;20.538;2023-03-01T06:48:33;128.60;2252.80
55151;DHT22;41041;43.162;20.538;2023-03-01T06:51:00;128.80;2252.80
55151;DHT22;41041;43.162;20.538;2023-03-01T06:53:27;128.60;2252.80
55151;DHT22;41041;43.162;20.538;2023-03-01T06:55:57;128.60;2252.80
55151;DHT22;41041;43.162;20.538;2023-03-01T06:58:23;128.60;2252.80
55151;DHT22;41041;43.162;20.538;2023-03-01T07:00:49;128.70;2252.80
55151;DHT22;41041;43.162;20.538;2023-03-01T07:03:15;128.90;2252.80
55151;DHT22;41041;43.162;20.538;2023-03-01T07:05:41;128.90;2252.80
55151;DHT22;41041;43.162;20.538;2023-03-01T07:08:08;128.70;2252.80
55151;DHT22;41041;43.162;20.538;2023-03-01T07:10:33;153.90;2252.80
55151;DHT22;41041;43.162;20.538;2023-03-01T07:12:59;128.90;2252.80
55151;DHT22;41041;43.162;20.538;2023-03-01T07:39:59;179.40;2252.80
55151;DHT22;41041;43.162;20.538;2023-03-01T07:42:25;179.30;2252.80
55151;DHT22;41041;43.162;20.538;2023-03-01T07:44:51;179.20;2252.80
55151;DHT22;41041;43.162;20.538;2023-03-01T11:03:01;281.60;2176.00
55151;DHT22;41041;43.162;20.538;2023-03-01T11:05:27;256.70;2150.40
55151;DHT22;41041;43.162;20.538;2023-03-01T11:08:00;256.70;2176.00
55151;DHT22;41041;43.162;20.538;2023-03-01T11:10:35;256.70;2176.00
55151;DHT22;41041;43.162;20.538;2023-03-01T11:13:14;256.80;2150.40
55151;DHT22;41041;43.162;20.538;2023-03-01T11:15:42;256.80;2150.40
55151;DHT22;41041;43.162;20.538;2023-03-01T11:18:22;256.80;2150.40
55151;DHT22;41041;43.162;20.538;2023-03-01T11:20:49;256.70;2150.40
55151;DHT22;41041;43.162;20.538;2023-03-01T11:23:17;256.70;2176.00
55151;DHT22;41041;43.162;20.538;2023-03-01T11:25:49;256.60;2176.00
55151;DHT22;41041;43.162;20.538;2023-03-01T11:28:19;256.50;2176.00
55151;DHT22;41041;43.162;20.538;2023-03-01T11:31:08;256.40;2176.00
55151;DHT22;41041;43.162;20.538;2023-03-01T11:39:36;256.40;2201.60
55151;DHT22;41041;43.162;20.538;2023-03-01T11:42:13;256.40;2201.60
55151;DHT22;41041;43.162;20.538;2023-03-01T11:44:41;256.40;2201.60
55151;DHT22;41041;43.162;20.538;2023-03-01T11:47:48;256.30;2201.60
55151;DHT22;41041;43.162;20.538;2023-03-01T11:50:41;256.30;2201.60
55151;DHT22;41041;43.162;20.538;2023-03-01T12:04:36;256.30;2227.20
55151;DHT22;41041;43.162;20.538;2023-03-01T12:07:18;256.30;2227.20
55151;DHT22;41041;43.162;20.538;2023-03-01T12:15:43;256.20;2227.20
55151;DHT22;41041;43.162;20.538;2023-03-01T12:37:20;256.90;2150.40
55151;DHT22;41041;43.162;20.538;2023-03-01T12:40:04;256.80;2176.00
55151;DHT22;41041;43.162;20.538;2023-03-01T12:43:02;256.80;2176.00
55151;DHT22;41041;43.162;20.538;2023-03-01T12:51:31;256.80;2176.00
55151;DHT22;41041;43.162;20.538;2023-03-01T12:54:00;256.70;2176.00
55151;DHT22;41041;43.162;20.538;2023-03-01T13:04:24;281.90;2150.40
55151;DHT22;41041;43.162;20.538;2023-03-01T13:07:23;281.60;2201.60
55151;DHT22;41041;43.162;20.538;2023-03-01T13:15:34;281.70;2176.00
55151;DHT22;41041;43.162;20.538;2023-03-01T18:24:41;205.10;2252.80
55151;DHT22;41041;43.162;20.538;2023-03-01T18:27:07;204.80;2252.80
55151;DHT22;41041;43.162;20.538;2023-03-01T19:11:54;204.80;2252.80
55151;DHT22;41041;43.162;20.538;2023-03-01T19:14:23;180.00;2252.80
55151;DHT22;41041;43.162;20.538;2023-03-01T20:26:22;205.30;2252.80
55151;DHT22;41041;43.162;20.538;2023-03-01T20:28:51;205.20;2252.80
55151;DHT22;41041;43.162;20.538;2023-03-01T20:31:19;205.10;2252.80
55151;DHT22;41041;43.162;20.538;2023-03-01T20:33:45;205.20;2252.80
55151;DHT22;41041;43.162;20.538;2023-03-01T20:36:11;205.00;2252.80
55151;DHT22;41041;43.162;20.538;2023-03-01T20:38:37;204.90;2252.80
55151;DHT22;41041;43.162;20.538;2023-03-01T20:41:06;204.90;2252.80
55151;DHT22;41041;43.162;20.538;2023-03-01T20:43:33;204.90;2252.80
55151;DHT22;41041;43.162;20.538;2023-03-01T20:46:03;205.20;2252.80
55151;DHT22;41041;43.162;20.538;2023-03-01T22:53:44;179.40;2252.80
55151;DHT22;41041;43.162;20.538;2023-03-01T22:56:22;179.30;2252.80
55151;DHT22;41041;43.162;20.538;2023-03-01T22:58:48;154.50;2252.80
55151;DHT22;41041;43.162;20.538;2023-03-01T23:01:23;154.50;2252.80
55151;DHT22;41041;43.162;20.538;2023-03-01T23:03:49;154.50;2252.80
55151;DHT22;41041;43.162;20.538;2023-03-01T23:06:17;154.30;2252.80
55151;DHT22;41041;43.162;20.538;2023-03-01T23:08:43;154.50;2252.80
55151;DHT22;41041;43.162;20.538;2023-03-01T23:11:14;154.50;2252.80
55151;DHT22;41041;43.162;20.538;2023-03-01T23:13:40;154.50;2252.80
55151;DHT22;41041;43.162;20.538;2023-03-01T23:16:07;154.50;2252.80
55151;DHT22;41041;43.162;20.538;2023-03-01T23:18:33;179.20;2252.80
55151;DHT22;41041;43.162;20.538;2023-03-01T23:20:59;179.40;2252.80
55151;DHT22;41041;43.162;20.538;2023-03-01T23:23:25;179.70;2252.80
55151;DHT22;41041;43.162;20.538;2023-03-01T23:25:55;179.80;2252.80
55151;DHT22;41041;43.162;20.538;2023-03-01T23:28:22;179.80;2252.80
55151;DHT22;41041;43.162;20.538;2023-03-01T23:31:00;179.70;2252.80
55151;DHT22;41041;43.162;20.538;2023-03-01T23:33:26;179.60;2252.80
55151;DHT22;41041;43.162;20.538;2023-03-01T23:35:53;179.70;2252.80
55151;DHT22;41041;43.162;20.538;2023-03-01T23:38:19;179.60;2252.80
55151;DHT22;41041;43.162;20.538;2023-03-01T23:40:45;179.30;2252.80
55151;DHT22;41041;43.162;20.538;2023-03-01T23:43:11;179.20;2252.80
55151;DHT22;41041;43.162;20.538;2023-03-01T23:45:39;179.30;2252.80
55151;DHT22;41041;43.162;20.538;2023-03-01T23:48:12;154.40;2252.80
55151;DHT22;41041;43.162;20.538;2023-03-01T23:59:08;154.30;2252.80
